Flight Track Log - Related Links

Times and Time Zones

All times are in EDT time to prevent confusion due to time zone crossing. See the N534QS flight status page for this flight to view local times or setup timezone preferences in your user account.

Time Position Orientation Groundspeed Altitude Reporting Facility
EDT Latitude Longitude Course Direction KTS MPH feet Rate Location/Type
Wed 06:18:12 AM 40.2667 -74.8333 180° South 181 208 1,400  Level Philadelphia TRACON
Wed 06:18:54 AM 40.2333 -74.8333 180° South 179 206 2,100 1,161 Climbing Philadelphia TRACON
Wed 06:21:18 AM 40.2117 -74.6033 97° East 289 333 5,000 857 Climbing New York Center
Wed 06:22:17 AM 40.2028 -74.4967 96° East 289 333 5,000  Level New York Center
Wed 06:23:18 AM 40.1744 -74.4003 111° Southeast 276 318 5,000  Level New York Center
Wed 06:24:19 AM 40.1497 -74.3256 113° Southeast 284 327 5,000  Level New York Center
Wed 06:25:18 AM 40.1192 -74.2289 112° Southeast 290 334 5,000 250 Level New York Center
Wed 06:26:19 AM 40.0867 -74.1269 113° Southeast 285 328 5,500 908 Climbing New York Center
Wed 06:27:17 AM 40.0561 -74.0278 112° Southeast 285 328 6,800 2,319 Climbing New York Center
Wed 06:28:18 AM 40.0256 -73.9261 111° Southeast 296 341 10,100 1,344 Climbing New York Center
Wed 06:30:20 AM 39.9578 -73.6608 108° East 363 418 10,900 264 Climbing Boston Center
Wed 06:31:20 AM 40.0028 -73.5397 64° Northeast 354 407 10,900  Level Boston Center
Wed 06:32:20 AM 40.0703 -73.4486 46° Northeast 337 388 10,900  Level Boston Center
Wed 06:33:20 AM 40.1397 -73.3519 47° Northeast 342 394 10,900  Level Boston Center
Wed 06:34:20 AM 40.2072 -73.2606 46° Northeast 348 400 10,900  Level Boston Center
Wed 06:35:32 AM 40.2892 -73.1500 46° Northeast 353 406 10,900  Level Boston Center
Wed 06:36:32 AM 40.3564 -73.0528 48° Northeast 348 400 10,900 -150 Level Boston Center
Wed 06:37:32 AM 40.4236 -72.9581 47° Northeast 348 400 10,600 -678 Descending Boston Center
Wed 06:39:29 AM 40.5500 -72.8333 37° Northeast 276 318 8,900 -929 Descending New York TRACON
Wed 06:41:00 AM 40.6064 -72.6833 North  Level FlightAware Approximate
Wed 06:42:29 AM 40.7500 -72.9333 North 255 293 6,000  Level New York TRACON
Wed 06:44:29 AM 40.8833 -73.0000 339° North 260 299 6,000 -220 Level New York TRACON
Wed 06:46:00 AM 40.9236 -73.1535 289° West  Level Estimated
Wed 06:47:29 AM 41.0500 -73.1500 289° West 244 281 4,900  Level New York TRACON
Wed 06:48:29 AM 41.0833 -73.2333 298° West 260 299 4,000 -450 Descending New York TRACON
Wed 06:49:29 AM 41.1167 -73.3167 298° West 261 300 4,000 -263 Level New York TRACON
Wed 06:50:23 AM 41.1500 -73.4000 298° West 259 298 3,500 -526 Descending New York TRACON
Wed 06:51:23 AM 41.1833 -73.4667 304° West 228 262 3,000 -286 Descending New York TRACON
Wed 06:52:29 AM 41.2000 -73.5333 288° West 207 238 2,900 -450 Descending New York TRACON
Wed 06:53:23 AM 41.2333 -73.6000 304° West 205 236 2,100 -474 Descending New York TRACON
Wed 06:54:23 AM 41.2333 -73.6667 270° West 168 193 2,000 -53 Descending New York TRACON
Wed 06:55:17 AM 41.2167 -73.7167 246° West 166 191 2,000  Level New York TRACON
Wed 06:56:17 AM 41.2167 -73.7833 270° West 168 193 2,000  Level New York TRACON
Wed 06:57:11 AM 41.1833 -73.8000 201° Southwest 170 196 2,000 -53 Level New York TRACON
Wed 06:58:11 AM 41.1333 -73.7667 153° Southeast 158 182 1,900 -350 Descending New York TRACON
Wed 06:59:11 AM 41.1167 -73.7333 124° Southeast 123 142 1,300 -632 Descending New York TRACON
Wed 07:00:05 AM 41.0833 -73.7167 159° South 121 139 700 -667 Descending New York TRACON
Wed 07:02:00 AM 41.0667 -73.7000 147° Southeast  Level FlightAware Approximate

Login

Don't have an account? Register now (free) for customized features, flight alerts, and more!